Time;durP1;ratioP1;P1;durP2;ratioP2;P2;SDS_P1;SDS_P2;PMS_P1;PMS_P2;Temp;Humidity;BMP_temperature;BMP_pressure;BME280_temperature;BME280_humidity;BME280_pressure;Samples;Min_cycle;Max_cycle;Signal;HPM_P1;HPM_P2
2021/05/08 00:00:11;;;;;;;22.10;19.37;;;;;;;5.76;70.97;101796.75;690937;28;863;-44
2021/05/08 00:00:32;;;;;;;22.08;19.30;;;;;;;5.77;70.93;101800.25;690984;28;825;-43
2021/05/08 00:00:52;;;;;;;22.70;20.00;;;;;;;5.75;70.85;101792.41;691073;28;923;-43
2021/05/08 00:01:13;;;;;;;23.03;19.57;;;;;;;5.80;70.90;101800.22;690792;28;844;-46
2021/05/08 00:01:33;;;;;;;23.35;19.90;;;;;;;5.79;70.89;101798.50;691039;28;785;-45
2021/05/08 00:01:54;;;;;;;23.67;19.87;;;;;;;5.77;70.93;101795.88;690962;28;867;-45
2021/05/08 00:02:14;;;;;;;21.98;18.88;;;;;;;5.77;70.86;101797.63;690991;28;863;-45
2021/05/08 00:02:37;;;;;;;21.03;18.20;;;;;;;5.78;70.68;101797.63;690910;28;971;-45
2021/05/08 00:02:57;;;;;;;24.25;20.08;;;;;;;5.78;70.63;101797.63;690956;28;868;-46
2021/05/08 00:03:20;;;;;;;23.47;19.50;;;;;;;5.75;70.62;101794.13;690861;28;882;-46
2021/05/08 00:03:41;;;;;;;23.55;19.60;;;;;;;5.72;70.80;101792.44;690212;28;1310;-47
2021/05/08 00:04:01;;;;;;;23.30;19.37;;;;;;;5.72;70.68;101790.69;690807;28;860;-45
2021/05/08 00:04:21;;;;;;;23.80;19.67;;;;;;;5.70;70.77;101796.78;690969;28;978;-46
2021/05/08 00:04:42;;;;;;;22.70;18.90;;;;;;;5.72;70.64;101792.44;690931;28;800;-46
2021/05/08 00:05:03;;;;;;;22.60;18.70;;;;;;;5.70;70.62;101792.41;690920;28;1003;-46
2021/05/08 00:05:24;;;;;;;22.55;19.55;;;;;;;5.68;70.70;101786.34;690821;28;1036;-46
2021/05/08 00:05:45;;;;;;;23.53;19.57;;;;;;;5.82;70.00;101793.25;690867;28;1143;-44
2021/05/08 00:06:08;;;;;;;22.45;19.23;;;;;;;5.81;70.03;101797.59;690886;28;887;-45
2021/05/08 00:06:28;;;;;;;23.15;19.85;;;;;;;5.76;70.10;101793.28;690906;28;865;-44
2021/05/08 00:06:48;;;;;;;23.57;19.50;;;;;;;5.74;70.15;101790.66;690863;28;1231;-44
2021/05/08 00:07:09;;;;;;;23.03;19.10;;;;;;;5.74;70.26;101792.41;690981;28;796;-44
2021/05/08 00:07:29;;;;;;;22.55;19.48;;;;;;;5.71;70.20;101791.56;690752;28;840;-45
2021/05/08 00:07:49;;;;;;;23.67;19.37;;;;;;;5.70;70.64;101794.19;691043;28;982;-46
2021/05/08 00:08:09;;;;;;;24.07;19.77;;;;;;;5.65;70.53;101786.38;690957;28;1065;-45
2021/05/08 00:08:33;;;;;;;24.15;20.05;;;;;;;5.62;70.60;101786.38;689845;28;1045;-45
2021/05/08 00:08:53;;;;;;;24.65;19.67;;;;;;;5.62;70.81;101794.22;690813;28;1291;-45
2021/05/08 00:09:13;;;;;;;23.70;19.23;;;;;;;5.63;70.85;101793.34;690855;28;958;-45
2021/05/08 00:09:34;;;;;;;23.90;19.73;;;;;;;5.60;70.63;101793.34;690690;28;1933;-44
2021/05/08 00:09:54;;;;;;;24.27;20.20;;;;;;;5.58;70.75;101784.69;691036;28;924;-45
2021/05/08 00:10:16;;;;;;;23.43;19.73;;;;;;;5.56;70.88;101791.66;690797;28;951;-44
2021/05/08 00:10:36;;;;;;;25.00;19.90;;;;;;;5.58;70.82;101789.91;690979;28;886;-43
2021/05/08 00:10:59;;;;;;;24.63;20.17;;;;;;;5.60;70.68;101782.91;690962;28;915;-43
2021/05/08 00:11:19;;;;;;;24.13;19.70;;;;;;;5.63;70.59;101787.25;690693;28;994;-43
2021/05/08 00:11:40;;;;;;;22.87;19.07;;;;;;;5.63;70.50;101788.13;690891;28;1006;-44
2021/05/08 00:12:06;;;;;;;21.73;18.35;;;;;;;5.65;70.58;101781.13;690934;28;856;-44
2021/05/08 00:12:26;;;;;;;22.00;18.42;;;;;;;5.66;70.58;101782.88;690886;28;848;-44
2021/05/08 00:12:46;;;;;;;23.13;19.30;;;;;;;5.69;70.13;101792.44;690950;28;794;-44
2021/05/08 00:13:09;;;;;;;23.30;19.40;;;;;;;5.70;69.90;101784.56;690852;28;853;-44
2021/05/08 00:13:30;;;;;;;25.10;19.77;;;;;;;5.75;69.59;101783.66;690841;28;827;-44
2021/05/08 00:13:50;;;;;;;25.03;19.73;;;;;;;5.75;69.71;101781.06;690792;28;1034;-44
2021/05/08 00:14:11;;;;;;;25.57;19.80;;;;;;;5.75;69.73;101783.66;690982;28;955;-44
2021/05/08 00:14:31;;;;;;;22.57;19.10;;;;;;;5.73;69.75;101778.47;690856;28;856;-44
2021/05/08 00:14:57;;;;;;;23.13;19.50;;;;;;;5.71;70.06;101782.81;690898;28;1211;-45
2021/05/08 00:15:20;;;;;;;23.33;19.42;;;;;;;5.69;69.90;101780.22;690895;28;918;-43
2021/05/08 00:15:40;;;;;;;22.83;19.33;;;;;;;5.65;70.02;101781.13;690808;28;820;-44
2021/05/08 00:16:01;;;;;;;22.97;19.53;;;;;;;5.65;69.79;101783.75;690906;28;976;-45
2021/05/08 00:16:21;;;;;;;22.33;19.53;;;;;;;5.64;70.08;101786.38;691025;28;887;-44
2021/05/08 00:16:41;;;;;;;23.45;19.40;;;;;;;5.64;70.11;101782.03;690687;28;895;-45
2021/05/08 00:17:02;;;;;;;23.13;19.37;;;;;;;5.65;70.24;101775.91;690995;28;895;-45
2021/05/08 00:17:22;;;;;;;23.98;19.98;;;;;;;5.65;70.21;101775.03;690873;28;797;-45
2021/05/08 00:17:46;;;;;;;26.00;20.10;;;;;;;5.64;70.24;101781.13;690836;28;916;-44
2021/05/08 00:18:06;;;;;;;24.67;19.88;;;;;;;5.68;70.13;101780.25;690906;28;867;-44
2021/05/08 00:18:32;;;;;;;22.70;19.47;;;;;;;5.69;70.13;101776.75;690519;28;875;-44
2021/05/08 00:18:52;;;;;;;23.90;20.00;;;;;;;5.70;70.06;101779.34;690804;28;944;-44
2021/05/08 00:19:12;;;;;;;23.07;19.93;;;;;;;5.72;69.93;101777.59;690829;28;801;-43
2021/05/08 00:19:33;;;;;;;24.27;20.23;;;;;;;5.74;70.03;101771.47;690771;28;1344;-43
2021/05/08 00:19:53;;;;;;;23.23;19.77;;;;;;;5.74;69.94;101776.72;690061;28;1348;-44
2021/05/08 00:20:17;;;;;;;24.67;20.67;;;;;;;5.71;69.88;101777.59;690891;28;824;-43
2021/05/08 00:20:38;;;;;;;25.27;20.67;;;;;;;5.75;69.76;101776.72;690807;28;836;-44
2021/05/08 00:20:58;;;;;;;25.75;21.27;;;;;;;5.76;69.62;101772.34;690948;28;923;-44
2021/05/08 00:21:19;;;;;;;25.30;21.27;;;;;;;5.74;69.64;101774.09;690791;28;835;-44
2021/05/08 00:21:39;;;;;;;25.00;20.98;;;;;;;5.73;69.74;101775.84;690878;28;913;-44
2021/05/08 00:21:59;;;;;;;25.70;21.57;;;;;;;5.71;69.87;101774.97;691007;28;832;-44
2021/05/08 00:22:20;;;;;;;25.00;21.07;;;;;;;5.71;69.88;101773.25;690752;28;995;-45
2021/05/08 00:22:40;;;;;;;23.48;20.27;;;;;;;5.70;69.92;101768.88;690794;28;1319;-49
2021/05/08 00:23:00;;;;;;;25.47;20.60;;;;;;;5.74;69.90;101774.09;690806;28;824;-45
2021/05/08 00:23:21;;;;;;;24.30;20.43;;;;;;;5.74;69.92;101774.09;690884;28;812;-43
2021/05/08 00:23:41;;;;;;;24.13;19.93;;;;;;;5.74;69.87;101774.09;690919;28;875;-45
2021/05/08 00:24:03;;;;;;;24.07;20.83;;;;;;;5.72;70.01;101772.38;690841;28;822;-43
2021/05/08 00:24:24;;;;;;;24.65;20.63;;;;;;;5.75;69.85;101770.59;690967;28;884;-44
2021/05/08 00:24:44;;;;;;;24.53;20.87;;;;;;;5.78;69.88;101773.19;690890;28;856;-44
2021/05/08 00:25:06;;;;;;;24.03;20.40;;;;;;;5.81;69.79;101774.03;690813;28;856;-45
2021/05/08 00:25:26;;;;;;;25.00;21.02;;;;;;;5.83;69.64;101774.03;690761;28;1083;-44
2021/05/08 00:25:49;;;;;;;24.30;20.37;;;;;;;5.82;69.63;101773.19;690883;28;820;-45
2021/05/08 00:26:10;;;;;;;24.10;20.58;;;;;;;5.82;69.66;101778.41;690996;28;1151;-45
2021/05/08 00:26:30;;;;;;;25.67;21.67;;;;;;;5.82;69.81;101774.94;690879;28;897;-44
2021/05/08 00:26:50;;;;;;;24.70;21.33;;;;;;;5.82;69.72;101777.53;690754;28;994;-45
2021/05/08 00:27:11;;;;;;;23.93;21.30;;;;;;;5.82;69.67;101769.69;690878;28;871;-45
2021/05/08 00:27:31;;;;;;;24.55;21.02;;;;;;;5.86;69.45;101780.13;690836;28;909;-45
2021/05/08 00:27:51;;;;;;;25.97;22.33;;;;;;;5.85;69.42;101770.53;690834;28;825;-44
2021/05/08 00:28:14;;;;;;;26.03;22.07;;;;;;;5.82;69.54;101772.31;690416;28;1439;-45
2021/05/08 00:28:37;;;;;;;24.38;21.63;;;;;;;5.80;69.57;101768.81;690353;28;862;-45
2021/05/08 00:28:58;;;;;;;26.02;21.95;;;;;;;5.78;69.59;101771.47;690771;28;904;-45
2021/05/08 00:29:18;;;;;;;26.73;21.88;;;;;;;5.78;69.72;101768.84;690856;28;1287;-44
2021/05/08 00:29:38;;;;;;;25.33;21.53;;;;;;;5.78;69.67;101766.25;690628;28;1976;-44
2021/05/08 00:29:59;;;;;;;25.85;21.85;;;;;;;5.76;69.82;101775.84;690873;28;829;-44
2021/05/08 00:30:20;;;;;;;26.08;22.40;;;;;;;5.75;69.78;101767.97;690868;28;1006;-44
2021/05/08 00:30:40;;;;;;;26.23;21.73;;;;;;;5.74;69.99;101768.88;690875;28;982;-44
2021/05/08 00:31:00;;;;;;;26.25;21.60;;;;;;;5.75;69.90;101770.59;690856;28;848;-43
2021/05/08 00:31:21;;;;;;;25.97;22.20;;;;;;;5.74;69.95;101771.47;690820;28;812;-45
2021/05/08 00:31:41;;;;;;;24.80;22.03;;;;;;;5.77;69.98;101771.47;690853;28;847;-44
2021/05/08 00:32:02;;;;;;;24.30;21.60;;;;;;;5.75;69.95;101770.59;690971;28;859;-44
2021/05/08 00:32:22;;;;;;;26.23;22.40;;;;;;;5.75;69.89;101767.97;690864;28;797;-44
2021/05/08 00:32:42;;;;;;;25.73;21.73;;;;;;;5.76;69.87;101773.22;690880;28;1046;-44
2021/05/08 00:33:03;;;;;;;24.80;22.10;;;;;;;5.78;69.90;101775.81;690722;28;991;-44
2021/05/08 00:33:23;;;;;;;25.48;22.45;;;;;;;5.78;69.76;101773.19;690790;28;979;-43
2021/05/08 00:33:43;;;;;;;25.70;22.13;;;;;;;5.78;69.79;101770.56;690826;28;876;-43
2021/05/08 00:34:03;;;;;;;26.20;22.60;;;;;;;5.74;69.85;101763.63;690829;28;850;-45
2021/05/08 00:34:24;;;;;;;26.67;22.27;;;;;;;5.77;69.89;101774.06;690903;28;849;-44
2021/05/08 00:34:47;;;;;;;26.87;22.37;;;;;;;5.75;69.81;101770.59;691009;28;899;-43
2021/05/08 00:35:07;;;;;;;26.65;22.42;;;;;;;5.75;70.02;101774.09;690443;28;865;-44
2021/05/08 00:35:28;;;;;;;26.50;22.17;;;;;;;5.75;69.98;101770.59;690615;28;855;-44
2021/05/08 00:35:48;;;;;;;25.17;22.40;;;;;;;5.72;69.77;101771.50;690691;28;974;-44
2021/05/08 00:36:11;;;;;;;24.27;21.65;;;;;;;5.74;69.88;101768.88;690667;28;876;-45
2021/05/08 00:36:31;;;;;;;25.25;21.83;;;;;;;5.79;69.76;101772.34;690690;28;1279;-43
2021/05/08 00:36:54;;;;;;;26.90;22.43;;;;;;;5.77;69.75;101768.84;690664;28;909;-43
2021/05/08 00:37:15;;;;;;;27.13;22.65;;;;;;;5.72;69.82;101761.91;690680;28;1238;-44
2021/05/08 00:37:35;;;;;;;26.93;22.63;;;;;;;5.74;70.03;101774.09;690911;28;781;-44
2021/05/08 00:37:55;;;;;;;26.70;22.23;;;;;;;5.75;69.80;101775.81;690843;28;863;-44
2021/05/08 00:38:18;;;;;;;27.50;22.50;;;;;;;5.72;69.95;101764.53;690806;28;1026;-45
2021/05/08 00:38:42;;;;;;;26.33;21.77;;;;;;;5.71;70.05;101761.91;690324;28;900;-44
2021/05/08 00:39:04;;;;;;;25.15;21.38;;;;;;;5.71;70.08;101770.63;690897;28;945;-43
2021/05/08 00:39:24;;;;;;;26.10;22.35;;;;;;;5.67;70.01;101763.66;690724;28;1449;-44
2021/05/08 00:39:47;;;;;;;26.90;22.77;;;;;;;5.65;70.04;101765.44;690002;28;1251;-44
2021/05/08 00:40:08;;;;;;;27.60;23.20;;;;;;;5.66;70.13;101772.41;691016;28;906;-44
2021/05/08 00:40:28;;;;;;;27.10;23.08;;;;;;;5.67;70.20;101768.91;690856;28;1009;-45
2021/05/08 00:40:49;;;;;;;27.88;23.48;;;;;;;5.70;69.99;101763.66;690819;28;1148;-44
2021/05/08 00:41:09;;;;;;;25.43;22.67;;;;;;;5.68;69.91;101765.44;690989;28;839;-44
2021/05/08 00:41:30;;;;;;;25.20;22.50;;;;;;;5.72;69.76;101772.38;690698;28;875;-45
2021/05/08 00:41:51;;;;;;;26.63;22.77;;;;;;;5.71;69.95;101765.41;690928;28;890;-44
2021/05/08 00:42:11;;;;;;;27.50;22.55;;;;;;;5.72;70.01;101761.91;690993;28;884;-44
2021/05/08 00:42:32;;;;;;;26.20;22.23;;;;;;;5.71;69.86;101768.03;690779;28;908;-45
2021/05/08 00:42:52;;;;;;;27.40;22.50;;;;;;;5.70;69.99;101766.25;690404;28;1341;-44
2021/05/08 00:43:14;;;;;;;26.40;22.60;;;;;;;5.68;70.05;101761.94;690804;28;935;-45
2021/05/08 00:43:35;;;;;;;27.05;21.83;;;;;;;5.67;70.22;101768.03;691081;28;887;-46
2021/05/08 00:43:58;;;;;;;27.17;21.83;;;;;;;5.68;70.30;101765.44;691004;28;1004;-45
2021/05/08 00:44:19;;;;;;;26.20;22.40;;;;;;;5.66;70.23;101764.56;691149;28;917;-44
2021/05/08 00:44:39;;;;;;;26.27;23.17;;;;;;;5.67;70.27;101765.41;691314;28;842;-45
2021/05/08 00:44:59;;;;;;;26.83;22.93;;;;;;;5.66;70.17;101761.94;691199;28;800;-45
2021/05/08 00:45:20;;;;;;;27.92;23.42;;;;;;;5.66;70.19;101761.94;691169;28;978;-45
2021/05/08 00:45:40;;;;;;;27.30;23.27;;;;;;;5.69;70.01;101769.78;691025;28;855;-46
2021/05/08 00:46:01;;;;;;;27.65;23.20;;;;;;;5.69;70.17;101764.53;690991;28;1003;-45
2021/05/08 00:46:22;;;;;;;26.90;23.10;;;;;;;5.72;70.06;101761.03;691035;28;991;-45
2021/05/08 00:46:43;;;;;;;25.95;22.38;;;;;;;5.72;70.06;101761.91;690981;28;939;-45
2021/05/08 00:47:03;;;;;;;25.70;22.10;;;;;;;5.71;70.02;101760.19;690393;28;1251;-46
2021/05/08 00:47:24;;;;;;;25.23;21.85;;;;;;;5.72;69.91;101761.91;690501;28;774;-45
2021/05/08 00:47:47;;;;;;;26.50;22.73;;;;;;;5.74;69.84;101768.88;690612;28;752;-45
2021/05/08 00:48:11;;;;;;;27.77;23.23;;;;;;;5.70;69.84;101761.03;690911;28;912;-45
2021/05/08 00:48:32;;;;;;;27.17;22.33;;;;;;;5.85;69.50;101762.69;690565;28;1785;-45
2021/05/08 00:48:54;;;;;;;27.38;22.70;;;;;;;5.85;69.58;101772.25;690883;28;883;-46
2021/05/08 00:49:16;;;;;;;26.95;22.75;;;;;;;5.84;69.36;101760.06;690964;28;836;-45
2021/05/08 00:49:38;;;;;;;27.23;23.05;;;;;;;5.84;69.43;101765.31;690942;28;1918;-45
2021/05/08 00:49:58;;;;;;;26.58;23.23;;;;;;;5.82;69.47;101761.84;690848;28;923;-45
2021/05/08 00:50:20;;;;;;;26.10;22.43;;;;;;;5.79;69.53;101759.25;690966;28;1062;-45
2021/05/08 00:50:41;;;;;;;25.65;21.85;;;;;;;5.77;69.64;101754.00;691041;28;847;-45
2021/05/08 00:51:02;;;;;;;27.70;22.35;;;;;;;5.79;69.73;101762.72;691192;28;986;-46
2021/05/08 00:51:23;;;;;;;28.37;22.90;;;;;;;5.77;69.63;101763.63;691104;28;870;-45
2021/05/08 00:51:43;;;;;;;28.17;23.27;;;;;;;5.78;69.69;101760.09;690908;28;811;-45
2021/05/08 00:52:04;;;;;;;28.43;22.93;;;;;;;5.79;69.71;101751.41;690796;28;1043;-45
2021/05/08 00:52:24;;;;;;;26.73;22.80;;;;;;;5.78;69.86;101760.09;690759;28;1316;-45
2021/05/08 00:52:45;;;;;;;27.37;22.87;;;;;;;5.85;69.64;101759.19;690915;28;980;-45
2021/05/08 00:53:07;;;;;;;27.67;22.13;;;;;;;5.87;69.57;101762.66;690840;28;844;-45
2021/05/08 00:53:27;;;;;;;27.25;22.55;;;;;;;5.83;69.55;101758.34;690805;28;874;-45
2021/05/08 00:53:48;;;;;;;26.77;23.33;;;;;;;5.89;69.41;101750.47;690795;28;986;-45
2021/05/08 00:54:08;;;;;;;27.58;23.35;;;;;;;5.89;69.33;101753.06;690777;28;839;-45
2021/05/08 00:54:28;;;;;;;26.27;23.20;;;;;;;5.85;69.16;101751.34;690752;28;978;-44
2021/05/08 00:54:49;;;;;;;25.90;22.43;;;;;;;5.91;69.18;101756.53;690883;28;875;-45
2021/05/08 00:55:10;;;;;;;26.75;22.50;;;;;;;5.88;69.51;101756.53;690609;28;1335;-45
2021/05/08 00:55:30;;;;;;;28.17;23.10;;;;;;;5.87;69.32;101750.44;690826;28;935;-46
2021/05/08 00:55:51;;;;;;;27.57;23.13;;;;;;;5.95;69.18;101758.25;690846;28;895;-45
2021/05/08 00:56:13;;;;;;;28.35;23.73;;;;;;;6.01;68.61;101753.00;690642;28;927;-45
2021/05/08 00:56:33;;;;;;;28.45;23.25;;;;;;;6.01;68.64;101757.34;690998;28;965;-45
2021/05/08 00:56:53;;;;;;;27.47;23.43;;;;;;;5.99;68.71;101754.78;690927;28;784;-44
2021/05/08 00:57:13;;;;;;;28.23;23.70;;;;;;;5.99;68.72;101749.53;689986;28;1547;-44
2021/05/08 00:57:34;;;;;;;26.57;22.63;;;;;;;6.02;68.65;101753.84;690820;28;839;-45
2021/05/08 00:57:59;;;;;;;26.60;22.70;;;;;;;5.98;68.52;101741.69;690961;28;859;-45
2021/05/08 00:58:20;;;;;;;26.25;22.20;;;;;;;6.00;68.71;101756.50;690753;28;920;-45
2021/05/08 00:58:41;;;;;;;26.60;22.93;;;;;;;5.99;68.65;101754.78;690469;28;819;-45
2021/05/08 00:59:02;;;;;;;26.17;22.73;;;;;;;5.95;68.82;101742.56;690688;28;902;-44
2021/05/08 00:59:23;;;;;;;26.67;23.38;;;;;;;5.99;68.86;101749.53;690822;28;1259;-44
2021/05/08 00:59:46;;;;;;;27.23;23.33;;;;;;;5.93;69.02;101749.56;690741;28;861;-45
2021/05/08 01:00:12;;;;;;;27.60;23.83;;;;;;;5.87;69.17;101752.19;690818;28;878;-44
2021/05/08 01:00:34;;;;;;;26.95;23.55;;;;;;;5.88;69.43;101748.69;690895;28;1075;-45
2021/05/08 01:00:55;;;;;;;27.63;23.75;;;;;;;5.79;69.42;101746.19;690825;28;900;-45
2021/05/08 01:01:16;;;;;;;27.35;23.30;;;;;;;5.80;69.45;101747.91;690855;28;803;-44
2021/05/08 01:01:36;;;;;;;27.23;22.92;;;;;;;5.84;69.36;101749.59;690855;28;780;-45
2021/05/08 01:01:56;;;;;;;28.20;23.23;;;;;;;5.84;69.27;101744.38;690784;28;855;-44
2021/05/08 01:02:19;;;;;;;28.38;23.70;;;;;;;5.84;69.22;101749.59;690808;28;867;-45
2021/05/08 01:02:39;;;;;;;27.58;23.33;;;;;;;5.86;69.32;101747.84;690778;28;899;-45
2021/05/08 01:03:00;;;;;;;26.90;22.98;;;;;;;5.86;69.25;101747.84;690907;28;899;-44
2021/05/08 01:03:21;;;;;;;28.40;23.10;;;;;;;5.86;69.16;101748.72;690799;28;850;-44
2021/05/08 01:03:45;;;;;;;28.30;23.33;;;;;;;5.84;69.20;101747.00;690633;28;1877;-44
2021/05/08 01:04:06;;;;;;;27.90;23.52;;;;;;;5.84;69.29;101747.00;690804;28;1007;-45
2021/05/08 01:04:30;;;;;;;28.20;24.07;;;;;;;5.86;69.32;101747.84;690674;28;793;-44
2021/05/08 01:04:50;;;;;;;27.85;23.13;;;;;;;5.86;69.01;101743.50;690229;28;1354;-45
2021/05/08 01:05:12;;;;;;;29.23;23.73;;;;;;;5.85;69.16;101751.34;690874;28;836;-45
2021/05/08 01:05:33;;;;;;;27.48;23.15;;;;;;;5.85;69.36;101751.34;690692;28;809;-44
2021/05/08 01:05:53;;;;;;;27.63;23.25;;;;;;;5.86;69.31;101747.84;690819;28;824;-44
2021/05/08 01:06:13;;;;;;;28.03;22.97;;;;;;;5.86;69.27;101747.84;690799;28;959;-44
2021/05/08 01:06:34;;;;;;;29.05;23.52;;;;;;;5.92;69.02;101748.72;690018;28;1319;-44
2021/05/08 01:06:54;;;;;;;26.03;23.23;;;;;;;5.98;69.09;101750.38;690903;28;795;-44
2021/05/08 01:07:17;;;;;;;26.77;22.70;;;;;;;5.99;68.87;101749.53;690737;28;806;-43
2021/05/08 01:07:39;;;;;;;26.83;22.98;;;;;;;5.96;69.05;101744.31;690369;28;879;-43
2021/05/08 01:08:03;;;;;;;26.67;23.25;;;;;;;5.91;68.94;101740.81;690647;28;836;-43
2021/05/08 01:08:24;;;;;;;27.98;24.67;;;;;;;5.89;69.03;101742.59;690125;28;966;-43
2021/05/08 01:08:44;;;;;;;29.58;24.55;;;;;;;5.86;69.17;101745.25;690393;28;946;-43
2021/05/08 01:09:05;;;;;;;28.23;24.17;;;;;;;5.85;69.19;101743.47;690405;28;950;-44
2021/05/08 01:09:26;;;;;;;27.48;23.90;;;;;;;5.82;69.08;101738.31;690512;28;1906;-44
2021/05/08 01:09:46;;;;;;;27.00;23.50;;;;;;;5.81;69.31;101747.00;690808;28;865;-44
2021/05/08 01:10:12;;;;;;;26.57;22.77;;;;;;;5.84;69.44;101741.75;690747;28;891;-44
2021/05/08 01:10:33;;;;;;;27.33;23.40;;;;;;;5.82;69.32;101740.91;690778;28;1047;-44
2021/05/08 01:10:54;;;;;;;27.77;23.38;;;;;;;5.82;69.46;101741.78;690776;28;1033;-44
2021/05/08 01:11:15;;;;;;;27.40;23.92;;;;;;;5.83;69.46;101742.66;690576;28;1042;-44
2021/05/08 01:11:36;;;;;;;26.98;22.95;;;;;;;5.81;69.40;101744.38;690519;28;947;-44
2021/05/08 01:11:57;;;;;;;28.30;23.15;;;;;;;5.83;69.45;101747.88;690531;28;900;-44
2021/05/08 01:12:17;;;;;;;27.08;22.83;;;;;;;5.88;69.17;101735.63;690665;28;848;-44
2021/05/08 01:12:37;;;;;;;27.23;22.87;;;;;;;5.90;69.13;101739.09;690589;28;828;-43
2021/05/08 01:13:00;;;;;;;27.20;22.70;;;;;;;5.91;69.12;101741.69;690599;28;867;-44
2021/05/08 01:13:24;;;;;;;27.48;23.05;;;;;;;5.88;69.20;101741.75;690890;28;852;-44
2021/05/08 01:13:44;;;;;;;26.08;22.73;;;;;;;5.89;69.05;101742.59;690699;28;796;-44
2021/05/08 01:14:06;;;;;;;26.60;23.17;;;;;;;5.88;68.84;101740.84;690906;28;1065;-45
2021/05/08 01:14:26;;;;;;;26.23;22.60;;;;;;;5.90;68.95;101742.56;690867;28;1036;-45
2021/05/08 01:14:48;;;;;;;26.08;23.13;;;;;;;5.87;69.17;101744.34;690700;28;809;-44
2021/05/08 01:15:11;;;;;;;26.20;22.75;;;;;;;5.88;69.32;101743.47;690756;28;1019;-44
2021/05/08 01:15:32;;;;;;;26.60;22.35;;;;;;;5.99;68.74;101743.41;690800;28;828;-44
2021/05/08 01:15:55;;;;;;;26.75;22.65;;;;;;;5.99;68.65;101736.44;690718;28;904;-44
2021/05/08 01:16:15;;;;;;;25.88;22.45;;;;;;;6.00;68.67;101743.41;690891;28;872;-44
2021/05/08 01:16:36;;;;;;;27.67;22.97;;;;;;;5.94;68.89;101740.84;690759;28;1021;-44
2021/05/08 01:16:57;;;;;;;26.23;22.65;;;;;;;5.94;68.91;101743.44;690752;28;970;-45
2021/05/08 01:17:17;;;;;;;25.90;22.73;;;;;;;5.92;69.12;101746.09;690779;28;966;-44
2021/05/08 01:17:41;;;;;;;26.70;22.83;;;;;;;5.87;68.92;101744.34;690805;28;888;-44
2021/05/08 01:18:01;;;;;;;28.20;23.17;;;;;;;5.87;69.01;101739.13;690777;28;970;-44
2021/05/08 01:18:22;;;;;;;27.30;23.13;;;;;;;5.83;69.21;101729.56;690643;28;918;-44
2021/05/08 01:18:42;;;;;;;27.20;22.90;;;;;;;5.85;69.09;101747.00;690293;28;911;-44
2021/05/08 01:19:03;;;;;;;25.17;22.40;;;;;;;5.86;69.21;101740.00;690801;28;852;-44
2021/05/08 01:19:28;;;;;;;25.52;22.63;;;;;;;5.84;69.25;101744.38;690701;28;1150;-44
2021/05/08 01:19:48;;;;;;;27.58;23.23;;;;;;;5.84;69.22;101744.38;690731;28;1278;-43
2021/05/08 01:20:11;;;;;;;25.80;23.03;;;;;;;5.81;69.35;101739.16;690818;28;857;-44
2021/05/08 01:20:32;;;;;;;25.50;22.40;;;;;;;5.84;69.37;101739.13;690813;28;848;-43
2021/05/08 01:20:52;;;;;;;25.87;22.50;;;;;;;5.84;69.29;101740.00;690816;28;807;-44
2021/05/08 01:21:16;;;;;;;26.08;23.25;;;;;;;5.85;69.10;101735.63;690761;28;1002;-43
2021/05/08 01:21:36;;;;;;;26.65;22.50;;;;;;;5.89;68.94;101742.59;690867;28;927;-44
2021/05/08 01:21:57;;;;;;;26.40;22.63;;;;;;;5.91;68.71;101741.69;690700;28;904;-44
2021/05/08 01:22:17;;;;;;;27.37;22.90;;;;;;;5.92;68.75;101737.34;690533;28;884;-43
2021/05/08 01:22:39;;;;;;;26.70;22.87;;;;;;;5.92;68.79;101737.34;690658;28;817;-44
2021/05/08 01:22:59;;;;;;;26.58;23.15;;;;;;;5.93;68.80;101739.09;690441;28;896;-44
2021/05/08 01:23:19;;;;;;;27.37;23.03;;;;;;;5.90;68.55;101731.25;690651;28;1020;-44
2021/05/08 01:23:40;;;;;;;27.15;23.05;;;;;;;5.85;68.98;101735.63;690597;28;855;-43
2021/05/08 01:24:00;;;;;;;26.63;23.13;;;;;;;5.83;69.18;101738.28;690551;28;871;-44
2021/05/08 01:24:20;;;;;;;26.63;22.98;;;;;;;5.84;68.83;101739.13;690849;28;926;-44
2021/05/08 01:24:41;;;;;;;26.27;22.73;;;;;;;5.82;69.04;101741.78;690933;28;781;-44
2021/05/08 01:25:06;;;;;;;26.07;23.13;;;;;;;5.80;69.25;101740.06;690814;28;965;-44
2021/05/08 01:25:27;;;;;;;26.63;23.15;;;;;;;5.79;69.30;101740.94;690784;28;1025;-43
2021/05/08 01:25:50;;;;;;;26.63;23.60;;;;;;;5.77;69.38;101740.06;690451;28;817;-44
2021/05/08 01:26:11;;;;;;;26.92;22.95;;;;;;;5.83;69.23;101745.25;690653;28;813;-43
2021/05/08 01:26:32;;;;;;;26.10;23.10;;;;;;;5.81;69.20;101740.03;690595;28;940;-43
2021/05/08 01:26:52;;;;;;;26.27;23.27;;;;;;;5.81;69.07;101741.78;690647;28;866;-44
2021/05/08 01:27:12;;;;;;;26.90;23.17;;;;;;;5.80;69.21;101740.06;690504;28;976;-44
2021/05/08 01:27:33;;;;;;;25.50;22.17;;;;;;;5.80;69.10;101742.66;690549;28;1210;-44
2021/05/08 01:27:58;;;;;;;26.53;22.67;;;;;;;5.77;69.46;101742.69;690837;28;886;-44
2021/05/08 01:28:18;;;;;;;26.50;23.00;;;;;;;5.74;69.30;101737.47;690779;28;895;-44
2021/05/08 01:28:40;;;;;;;26.85;23.27;;;;;;;5.74;69.39;101737.47;690262;28;817;-44
2021/05/08 01:29:02;;;;;;;26.83;22.30;;;;;;;5.76;69.38;101738.34;690901;28;820;-44
2021/05/08 01:29:22;;;;;;;25.75;22.80;;;;;;;5.76;69.38;101740.97;690532;28;1918;-44
2021/05/08 01:29:43;;;;;;;26.20;23.10;;;;;;;5.76;69.32;101735.72;690880;28;867;-45
2021/05/08 01:30:05;;;;;;;25.83;22.57;;;;;;;5.80;69.30;101738.28;690838;28;870;-45
2021/05/08 01:30:31;;;;;;;25.80;23.00;;;;;;;5.77;69.21;101740.06;690722;28;1278;-45
2021/05/08 01:30:52;;;;;;;26.15;23.25;;;;;;;5.79;68.99;101736.56;690860;28;882;-45
2021/05/08 01:31:13;;;;;;;26.05;23.25;;;;;;;5.80;68.94;101738.28;690702;28;964;-45
2021/05/08 01:31:33;;;;;;;27.42;23.23;;;;;;;5.81;68.78;101733.94;690781;28;1003;-44
2021/05/08 01:31:54;;;;;;;26.37;23.20;;;;;;;5.84;68.82;101733.91;690829;28;888;-44
2021/05/08 01:32:14;;;;;;;25.75;22.27;;;;;;;5.82;68.90;101736.56;690725;28;888;-43
2021/05/08 01:32:34;;;;;;;26.03;21.93;;;;;;;5.83;68.97;101737.41;690863;28;927;-44
2021/05/08 01:32:57;;;;;;;24.90;22.23;;;;;;;5.82;68.80;101736.56;690897;28;808;-45
2021/05/08 01:33:18;;;;;;;26.65;22.65;;;;;;;5.85;68.94;101736.53;690749;28;840;-45
2021/05/08 01:33:39;;;;;;;27.90;22.90;;;;;;;5.88;68.74;101722.53;690747;28;983;-44
2021/05/08 01:34:00;;;;;;;26.80;23.13;;;;;;;5.89;68.51;101734.75;690724;28;1586;-44
2021/05/08 01:34:20;;;;;;;26.45;23.05;;;;;;;5.87;68.61;101732.13;690706;28;885;-44
2021/05/08 01:34:41;;;;;;;26.00;23.07;;;;;;;5.85;68.77;101727.78;690839;28;987;-44
2021/05/08 01:35:01;;;;;;;26.60;22.87;;;;;;;5.85;68.77;101728.69;690748;28;814;-44
2021/05/08 01:35:22;;;;;;;26.48;22.65;;;;;;;5.81;68.80;101728.69;690810;28;894;-44
2021/05/08 01:35:43;;;;;;;25.88;23.08;;;;;;;5.89;68.85;101726.91;690746;28;840;-44
2021/05/08 01:36:03;;;;;;;26.23;23.23;;;;;;;5.87;68.83;101729.50;690739;28;852;-45
2021/05/08 01:36:24;;;;;;;27.05;23.58;;;;;;;5.86;68.93;101732.16;690735;28;977;-44
2021/05/08 01:36:44;;;;;;;27.83;23.80;;;;;;;5.83;69.08;101726.94;690825;28;854;-44
2021/05/08 01:37:05;;;;;;;27.67;24.10;;;;;;;5.81;69.08;101729.56;690912;28;941;-43
2021/05/08 01:37:25;;;;;;;26.40;23.00;;;;;;;5.80;69.10;101721.75;690821;28;898;-44
2021/05/08 01:37:46;;;;;;;25.93;22.57;;;;;;;5.78;69.27;101728.72;690566;28;991;-44
2021/05/08 01:38:06;;;;;;;26.52;22.27;;;;;;;5.79;69.08;101726.09;690803;28;820;-44
2021/05/08 01:38:27;;;;;;;26.53;22.97;;;;;;;5.80;69.04;101721.75;690474;28;859;-43
2021/05/08 01:38:48;;;;;;;26.67;23.45;;;;;;;5.79;68.93;101727.84;690644;28;1066;-43
2021/05/08 01:39:08;;;;;;;27.00;23.50;;;;;;;5.75;69.35;101728.75;690756;28;1042;-44
2021/05/08 01:39:29;;;;;;;26.90;23.27;;;;;;;5.66;69.44;101725.31;690628;28;1339;-44
2021/05/08 01:39:50;;;;;;;25.38;22.65;;;;;;;5.65;69.45;101722.72;690764;28;820;-44
2021/05/08 01:40:12;;;;;;;27.17;23.23;;;;;;;5.63;69.66;101724.47;690774;28;975;-44